Time;durP1;ratioP1;P1;durP2;ratioP2;P2;SDS_P1;SDS_P2;PMS_P1;PMS_P2;Temp;Humidity;BMP_temperature;BMP_pressure;BME280_temperature;BME280_humidity;BME280_pressure;Samples;Min_cycle;Max_cycle;Signal;HPM_P1;HPM_P2
2021/06/17 00:06:29;;;;;;;1999.90;999.90;;;;;;;21.66;53.21;101118.16;15654760;28;20045;-65
2021/06/17 00:14:02;;;;;;;1999.90;999.90;;;;;;;21.41;53.08;101118.88;15683626;28;20053;-65
2021/06/17 00:21:34;;;;;;;1999.90;999.90;;;;;;;21.22;53.60;101119.94;15667198;28;20044;-65
2021/06/17 00:29:08;;;;;;;1999.90;999.90;;;;;;;21.18;53.61;101116.28;15683568;28;20053;-65
2021/06/17 00:36:41;;;;;;;1999.90;999.90;;;;;;;21.24;53.65;101113.88;15692241;28;20095;-65
2021/06/17 00:44:15;;;;;;;1999.90;999.90;;;;;;;21.17;54.17;101111.81;15683512;28;20064;-65
2021/06/17 00:51:47;;;;;;;1999.90;999.90;;;;;;;21.04;54.83;101107.66;15663950;28;20120;-66
2021/06/17 00:59:20;;;;;;;1999.90;999.90;;;;;;;21.07;55.58;101104.06;15670271;22;20132;-59
2021/06/17 01:06:53;;;;;;;1999.90;999.90;;;;;;;20.93;56.37;101098.28;15652743;28;20486;-61
2021/06/17 01:14:32;;;;;;;1999.90;999.90;;;;;;;20.92;57.01;101090.97;15596085;28;20183;-61
2021/06/17 01:22:13;;;;;;;1999.90;999.90;;;;;;;20.91;57.70;101095.03;15579851;28;20072;-61
2021/06/17 01:29:55;;;;;;;1999.90;999.90;;;;;;;20.93;58.41;101095.44;15579520;28;20076;-59
2021/06/17 01:37:28;;;;;;;1999.90;999.90;;;;;;;20.94;59.04;101085.72;15611309;28;20497;-59
2021/06/17 01:45:04;;;;;;;1999.90;999.90;;;;;;;20.93;60.10;101098.28;15612091;28;20209;-61
2021/06/17 01:52:37;;;;;;;1999.90;999.90;;;;;;;20.67;60.44;101091.59;15612093;28;20504;-61
2021/06/17 02:00:12;;;;;;;1999.90;999.90;;;;;;;20.62;61.49;101085.47;15575831;28;20121;-61
2021/06/17 02:07:45;;;;;;;1999.90;999.90;;;;;;;20.78;61.73;101082.38;15593045;28;20128;-61
2021/06/17 02:15:26;;;;;;;1999.90;999.90;;;;;;;20.66;62.67;101080.66;15609782;28;20041;-60
2021/06/17 02:23:02;;;;;;;1999.90;999.90;;;;;;;20.46;63.35;101075.25;15610084;28;20187;-60
2021/06/17 02:30:37;;;;;;;1999.90;999.90;;;;;;;20.51;63.62;101067.56;15609621;28;20080;-61
2021/06/17 02:38:11;;;;;;;1999.90;999.90;;;;;;;20.38;64.51;101059.34;15599732;28;20050;-61
2021/06/17 02:45:46;;;;;;;1999.90;999.90;;;;;;;20.25;65.35;101060.03;15612790;28;20386;-61
2021/06/17 02:53:20;;;;;;;1999.90;999.90;;;;;;;20.26;65.79;101044.66;15621738;28;20061;-61
2021/06/17 03:00:58;;;;;;;1999.90;999.90;;;;;;;20.26;66.27;101058.84;15621318;28;20429;-60
2021/06/17 03:08:35;;;;;;;1999.90;999.90;;;;;;;20.32;66.25;101055.25;15620038;28;20049;-62
2021/06/17 03:16:12;;;;;;;1999.90;999.90;;;;;;;20.34;67.10;101054.88;15601389;28;20053;-61
2021/06/17 03:23:47;;;;;;;1999.90;999.90;;;;;;;20.38;67.15;101056.50;15602588;28;20045;-59
2021/06/17 03:31:21;;;;;;;1999.90;999.90;;;;;;;20.48;66.87;101055.00;15601281;28;20065;-59
2021/06/17 03:38:55;;;;;;;1999.90;999.90;;;;;;;20.47;67.41;101053.38;15601339;28;20049;-59
2021/06/17 03:46:29;;;;;;;1999.90;999.90;;;;;;;20.64;67.41;101061.22;15600301;28;20116;-60
2021/06/17 03:54:02;;;;;;;1999.90;999.90;;;;;;;20.69;67.71;101058.00;15617848;28;20455;-60
2021/06/17 04:01:36;;;;;;;1999.90;999.90;;;;;;;20.86;67.34;101061.38;15616108;28;20034;-60
2021/06/17 04:09:09;;;;;;;1999.90;999.90;;;;;;;21.08;67.08;101074.47;15616423;28;20041;-61
2021/06/17 04:16:43;;;;;;;1999.90;999.90;;;;;;;21.24;66.89;101059.94;15616032;28;20041;-60
2021/06/17 04:24:19;;;;;;;1999.90;999.90;;;;;;;21.36;66.94;101070.97;15599965;28;20033;-60
2021/06/17 04:31:54;;;;;;;1999.90;999.90;;;;;;;21.49;66.53;101065.78;15617704;28;20137;-60
2021/06/17 04:39:27;;;;;;;1999.90;999.90;;;;;;;21.86;65.87;101074.00;15616430;28;20069;-60
2021/06/17 04:47:01;;;;;;;1999.90;999.90;;;;;;;22.12;65.18;101093.59;15598260;28;20059;-59
2021/06/17 04:54:36;;;;;;;1999.90;999.90;;;;;;;22.47;63.98;101092.81;15597021;28;20045;-59
2021/06/17 05:02:10;;;;;;;1999.90;999.90;;;;;;;22.88;63.06;101098.13;15596543;28;20049;-61
2021/06/17 05:17:34;;;;;;;1999.90;999.90;;;;;;;23.18;62.17;101113.94;15594572;28;20049;-59
2021/06/17 05:25:07;;;;;;;1999.90;999.90;;;;;;;23.72;60.82;101106.84;15594473;28;20505;-59
2021/06/17 05:32:41;;;;;;;1999.90;999.90;;;;;;;23.77;60.56;101111.31;15579306;28;20057;-61
2021/06/17 05:40:14;;;;;;;1999.90;999.90;;;;;;;23.96;60.27;101113.66;15595844;28;20053;-62
2021/06/17 05:47:48;;;;;;;1999.90;999.90;;;;;;;24.73;58.82;101110.72;15594009;28;20069;-64
2021/06/17 05:55:20;;;;;;;1999.90;999.90;;;;;;;25.24;56.51;101118.41;15576908;28;20041;-65
2021/06/17 06:02:53;;;;;;;1999.90;999.90;;;;;;;25.90;55.01;101109.44;15593580;28;20054;-64
2021/06/17 06:10:28;;;;;;;1999.90;999.90;;;;;;;25.74;54.47;101117.00;15610978;28;20311;-64
2021/06/17 06:18:06;;;;;;;1999.90;999.90;;;;;;;26.22;53.48;101121.66;15610845;28;20053;-64
2021/06/17 06:25:44;;;;;;;1999.90;999.90;;;;;;;26.36;53.38;101113.66;15610226;28;20037;-63
2021/06/17 06:33:18;;;;;;;1999.90;999.90;;;;;;;27.38;51.78;101120.94;15593017;28;20045;-63
2021/06/17 06:40:52;;;;;;;1999.90;999.90;;;;;;;27.24;51.43;101127.75;15610605;28;20422;-64
2021/06/17 06:48:25;;;;;;;1999.90;999.90;;;;;;;28.12;49.90;101138.66;15593317;28;20133;-63
2021/06/17 06:55:57;;;;;;;1999.90;999.90;;;;;;;28.86;48.08;101140.19;15613205;22;20578;-70
2021/06/17 07:03:32;;;;;;;;;;;;;;;29.19;45.48;101161.94;15638345;28;20049;-70
2021/06/17 07:11:06;;;;;;;;;;;;;;;29.84;44.21;101153.16;15657935;28;19921;-67
2021/06/17 07:18:40;;;;;;;;;;;;;;;29.94;43.76;101147.53;15653775;28;20271;-69
2021/06/17 07:26:12;;;;;;;;;;;;;;;29.95;42.17;101144.19;15672669;28;19963;-71
2021/06/17 07:33:45;;;;;;;;;;;;;;;30.84;40.84;101149.22;15674815;28;20300;-69
2021/06/17 07:41:18;;;;;;;;;;;;;;;31.56;39.87;101151.22;15664592;28;19932;-69
2021/06/17 07:48:51;;;;;;;;;;;;;;;31.84;38.07;101161.72;15667103;28;19924;-69
2021/06/17 07:56:23;;;;;;;;;;;;;;;32.54;37.02;101156.53;15686686;28;19920;-69
2021/06/17 08:03:56;;;;;;;;;;;;;;;32.93;35.49;101154.91;15664863;28;20308;-71
2021/06/17 08:11:29;;;;;;;;;;;;;;;32.86;35.63;101155.22;15663618;28;19956;-70
2021/06/17 08:19:02;;;;;;;;;;;;;;;32.98;35.12;101159.25;15681055;28;19975;-69
2021/06/17 08:26:35;;;;;;;;;;;;;;;33.34;34.90;101166.34;15662428;28;19928;-69
2021/06/17 08:34:09;;;;;;;;;;;;;;;33.54;33.64;101161.72;15646950;28;19971;-68
2021/06/17 08:41:41;;;;;;;;;;;;;;;34.06;33.37;101164.75;15679909;28;19921;-68
2021/06/17 08:49:15;;;;;;;;;;;;;;;35.11;33.69;101165.78;15662686;28;19925;-68
2021/06/17 08:56:50;;;;;;;;;;;;;;;34.88;32.24;101160.78;15680353;28;20396;-69
2021/06/17 09:04:25;;;;;;;;;;;;;;;35.20;31.60;101157.03;15679212;28;20002;-69
2021/06/17 09:11:57;;;;;;;;;;;;;;;35.91;30.81;101164.03;15678068;28;19952;-69
2021/06/17 09:19:42;;;;;;;;;;;;;;;36.08;29.61;101170.97;15660869;28;19956;-69
2021/06/17 09:27:25;;;;;;;;;;;;;;;37.44;29.07;101175.50;15678382;28;19920;-69
2021/06/17 09:34:58;;;;;;;;;;;;;;;37.22;27.80;101149.00;15677286;28;19924;-69
2021/06/17 09:42:31;;;;;;;;;;;;;;;36.92;28.18;101152.03;15679000;28;19963;-70
2021/06/17 09:50:19;;;;;;;;;;;;;;;36.82;25.86;101152.63;15689096;28;19960;-71
2021/06/17 09:57:51;;;;;;;;;;;;;;;37.53;25.43;101140.41;15690141;22;20503;-70
2021/06/17 10:05:27;;;;;;;;;;;;;;;37.24;26.76;101137.66;15738057;28;19921;-71
2021/06/17 10:12:59;;;;;;;;;;;;;;;37.97;26.12;101123.94;15738358;28;19931;-71
2021/06/17 10:20:33;;;;;;;;;;;;;;;37.26;25.32;101135.81;15740847;28;19927;-72
2021/06/17 10:28:05;;;;;;;;;;;;;;;37.70;24.60;101116.50;15772533;28;19927;-71
2021/06/17 10:35:38;;;;;;;;;;;;;;;38.87;24.00;101116.69;15740198;28;19920;-72
2021/06/17 10:43:19;;;;;;;;;;;;;;;38.34;24.43;101101.50;15738078;28;19950;-71
2021/06/17 10:51:08;;;;;;;;;;;;;;;38.74;23.63;101102.56;15739176;28;19931;-70
2021/06/17 10:59:04;;;;;;;;;;;;;;;38.98;23.14;101105.09;15737893;28;20018;-71
2021/06/17 11:06:55;;;;;;;;;;;;;;;38.75;23.26;101098.34;15737834;28;19928;-71
2021/06/17 11:14:38;;;;;;;;;;;;;;;38.81;23.68;101099.19;15746335;28;20031;-71
2021/06/17 11:22:31;;;;;;;;;;;;;;;39.94;22.91;101103.28;15746713;28;19921;-73
2021/06/17 11:30:05;;;;;;;;;;;;;;;39.30;22.80;101099.97;15746886;28;19930;-71
2021/06/17 11:37:37;;;;;;;;;;;;;;;38.06;23.54;101083.78;15742984;28;19924;-72
2021/06/17 11:45:11;;;;;;;;;;;;;;;40.45;20.92;101080.72;15741730;28;19931;-71
2021/06/17 11:52:45;;;;;;;;;;;;;;;37.60;23.09;101072.19;15743476;28;19927;-71
2021/06/17 12:00:28;;;;;;;;;;;;;;;37.49;23.67;101072.09;15741890;28;19924;-71
2021/06/17 12:08:00;;;;;;;;;;;;;;;37.92;22.73;101060.59;15741602;28;19920;-71
2021/06/17 12:15:35;;;;;;;;;;;;;;;39.10;22.08;101054.22;15738969;28;19929;-72
2021/06/17 12:23:11;;;;;;;;;;;;;;;39.01;21.22;101039.88;15740287;28;19928;-71
2021/06/17 12:30:45;;;;;;;;;;;;;;;38.92;21.60;101043.81;15739400;28;19920;-71
2021/06/17 12:38:25;;;;;;;;;;;;;;;39.28;21.39;101046.34;15738372;28;19920;-71
2021/06/17 12:46:01;;;;;;;;;;;;;;;43.43;17.89;101037.56;15743673;28;19931;-72
2021/06/17 12:53:47;;;;;;;;;;;;;;;43.36;18.58;101032.34;15704142;22;19931;-70
2021/06/17 13:01:22;;;;;;;;;;;;;;;41.01;19.24;101017.00;15678510;28;19978;-71
2021/06/17 13:08:55;;;;;;;;;;;;;;;38.04;21.22;101010.69;15678105;28;19960;-70
2021/06/17 13:16:29;;;;;;;;;;;;;;;37.45;21.13;101011.22;15675598;28;19921;-70
2021/06/17 13:24:01;;;;;;;;;;;;;;;37.61;23.92;101020.59;15675098;28;19921;-68
2021/06/17 13:31:37;;;;;;;;;;;;;;;37.81;22.67;101006.78;15674970;28;20363;-69
2021/06/17 13:39:15;;;;;;;;;;;;;;;37.18;23.31;101017.50;15675551;28;19936;-70
2021/06/17 13:46:48;;;;;;;;;;;;;;;36.95;23.72;100996.88;15657818;28;19929;-69
2021/06/17 13:54:22;;;;;;;;;;;;;;;36.58;24.96;101005.41;15675054;28;20258;-68
2021/06/17 14:01:55;;;;;;;;;;;;;;;35.59;25.41;101014.88;15674969;28;19927;-70
2021/06/17 14:09:27;;;;;;;;;;;;;;;36.04;24.83;100992.41;15675601;28;19920;-70
2021/06/17 14:17:01;;;;;;;;;;;;;;;35.93;24.79;100981.41;15674917;28;20012;-70
2021/06/17 14:24:32;;;;;;;;;;;;;;;36.03;24.40;100977.09;15673318;28;19984;-70
2021/06/17 14:32:06;;;;;;;;;;;;;;;35.99;25.03;100981.53;15673997;28;20015;-69
2021/06/17 14:39:39;;;;;;;;;;;;;;;35.90;25.51;100988.25;15672870;28;19952;-71
2021/06/17 14:47:12;;;;;;;;;;;;;;;35.16;25.70;100967.13;15684659;28;19921;-71
2021/06/17 14:54:44;;;;;;;;;;;;;;;35.42;25.75;100964.44;15687083;28;19924;-70
2021/06/17 15:02:18;;;;;;;;;;;;;;;35.57;25.17;100966.03;15685233;28;19921;-71
2021/06/17 15:09:50;;;;;;;;;;;;;;;35.41;25.34;100975.25;15687928;28;19974;-70
2021/06/17 15:17:24;;;;;;;;;;;;;;;35.64;24.82;100970.63;15700204;28;19931;-70
2021/06/17 15:24:56;;;;;;;;;;;;;;;35.53;25.13;100950.13;15667251;28;19921;-68
2021/06/17 15:32:29;;;;;;;;;;;;;;;35.36;25.41;100946.94;15682789;28;19947;-68
2021/06/17 15:40:02;;;;;;;;;;;;;;;35.19;25.19;100958.22;15671819;28;19928;-69
2021/06/17 15:47:35;;;;;;;;;;;;;;;35.41;25.36;100945.44;15668966;28;20122;-70
2021/06/17 15:55:08;;;;;;;;;;;;;;;34.82;25.52;100949.06;15680642;28;19967;-61
2021/06/17 16:02:41;;;;;;;;;;;;;;;35.03;25.27;100940.53;15632872;28;20422;-62
2021/06/17 16:10:15;;;;;;;;;;;;;;;34.67;25.56;100928.72;15686750;22;20016;-60
2021/06/17 16:17:49;;;;;;;;;;;;;;;34.93;25.20;100934.81;15598103;28;19928;-60
2021/06/17 16:25:21;;;;;;;;;;;;;;;34.59;25.65;100930.38;15556046;28;19931;-59
2021/06/17 16:32:55;;;;;;;;;;;;;;;34.50;25.19;100936.28;15531795;28;20075;-62
2021/06/17 16:40:28;;;;;;;;;;;;;;;34.84;26.27;100922.47;15546965;28;19925;-65
2021/06/17 16:48:01;;;;;;;;;;;;;;;34.67;24.51;100933.72;15547510;28;20028;-62
2021/06/17 16:55:33;;;;;;;;;;;;;;;34.73;25.14;100926.75;15546756;28;19948;-63
2021/06/17 17:03:08;;;;;;;;;;;;;;;34.55;25.67;100911.59;15546386;28;19933;-63
2021/06/17 17:10:40;;;;;;;;;;;;;;;34.41;25.69;100913.19;15528539;28;20040;-63
2021/06/17 17:18:14;;;;;;;;;;;;;;;34.52;24.56;100907.63;15548565;28;20322;-62
2021/06/17 17:25:46;;;;;;;;;;;;;;;34.36;23.73;100910.91;15547018;28;19932;-63
2021/06/17 17:33:19;;;;;;;;;;;;;;;34.22;24.28;100926.94;15552936;28;19925;-62
2021/06/17 17:40:51;;;;;;;;;;;;;;;34.06;24.36;100918.69;15552099;28;19928;-62
2021/06/17 17:48:25;;;;;;;;;;;;;;;33.95;24.45;100919.22;15553267;28;19921;-62
2021/06/17 17:55:57;;;;;;;;;;;;;;;33.86;24.74;100928.72;15552912;28;20306;-63
2021/06/17 18:03:31;;;;;;;;;;;;;;;33.75;24.76;100942.94;15540074;28;20363;-63
2021/06/17 18:11:04;;;;;;;;;;;;;;;33.87;25.03;100935.38;15534378;28;19921;-64
2021/06/17 18:18:37;;;;;;;;;;;;;;;33.63;25.36;100937.38;15551906;28;19932;-63
2021/06/17 18:26:09;;;;;;;;;;;;;;;33.75;25.55;100937.13;15550525;28;19968;-63
2021/06/17 18:33:42;;;;;;;;;;;;;;;33.26;26.05;100935.38;15535653;28;20072;-61
2021/06/17 18:41:21;;;;;;;;;;;;;;;32.94;26.64;100945.56;15501004;28;19997;-60
2021/06/17 18:48:54;;;;;;;;;;;;;;;32.77;27.44;100946.31;15532504;28;19922;-63
2021/06/17 18:56:26;;;;;;;;;;;;;;;32.78;27.52;100945.84;15557813;22;20011;-63
2021/06/17 19:04:00;;;;;;;;;;;;;;;32.62;29.73;100949.88;15674419;28;19981;-62
2021/06/17 19:11:32;;;;;;;;;;;;;;;32.08;30.48;100953.41;15705096;28;19928;-62
2021/06/17 19:19:05;;;;;;;;;;;;;;;31.56;32.27;100955.09;15736235;28;19978;-62
2021/06/17 19:26:37;;;;;;;;;;;;;;;31.19;33.80;100959.84;15719785;28;20335;-62
2021/06/17 19:34:11;;;;;;;;;;;;;;;30.82;36.14;100965.31;15748868;28;20023;-62
2021/06/17 19:41:43;;;;;;;;;;;;;;;30.27;34.58;100967.66;15735884;28;19920;-61
2021/06/17 19:49:16;;;;;;;;;;;;;;;29.84;33.93;100976.88;15747686;28;19943;-60
2021/06/17 20:04:36;;;;;;;;;;;;;;;29.30;38.85;100992.09;15730245;28;19928;-61
2021/06/17 20:12:10;;;;;;;;;;;;;;;28.62;37.02;100993.16;15747937;28;19920;-61
2021/06/17 20:19:46;;;;;;;;;;;;;;;29.00;35.90;100987.63;15746333;28;19989;-60
2021/06/17 20:27:18;;;;;;;;;;;;;;;28.87;36.48;101003.97;15746650;28;19922;-62
2021/06/17 20:34:51;;;;;;;;;;;;;;;28.40;37.55;100996.59;15728572;28;19924;-62
2021/06/17 20:42:23;;;;;;;;;;;;;;;28.07;38.61;100998.63;15747409;28;19927;-59
2021/06/17 20:49:57;;;;;;;;;;;;;;;28.24;38.34;101013.78;15745455;28;20265;-59
2021/06/17 20:57:29;;;;;;;;;;;;;;;28.20;39.05;101010.19;15727384;28;19952;-62
2021/06/17 21:05:02;;;;;;;;;;;;;;;27.86;40.01;101017.16;15744160;28;19924;-61
2021/06/17 21:12:34;;;;;;;;;;;;;;;27.99;39.99;101023.00;15726332;28;20293;-61
2021/06/17 21:20:09;;;;;;;;;;;;;;;28.00;40.53;101018.88;15695282;28;19920;-61
2021/06/17 21:27:41;;;;;;;;;;;;;;;27.66;41.44;101032.78;15742816;28;19928;-60
2021/06/17 21:35:14;;;;;;;;;;;;;;;27.13;42.67;101017.50;15724797;28;19974;-62
2021/06/17 21:42:46;;;;;;;;;;;;;;;27.21;42.65;101028.38;15741880;28;20018;-62
2021/06/17 21:50:20;;;;;;;;;;;;;;;27.20;42.46;101023.06;15706507;28;19931;-62
2021/06/17 21:57:52;;;;;;;;;;;;;;;27.16;42.66;101028.88;15740379;28;19920;-62
2021/06/17 22:05:27;;;;;;;;;;;;;;;27.06;42.34;101035.63;15741127;28;19984;-60
2021/06/17 22:12:59;;;;;;;;;;;;;;;27.06;42.47;101037.69;15741101;28;19921;-62
2021/06/17 22:20:32;;;;;;;;;;;;;;;27.02;42.75;101044.31;15721414;28;20022;-63
2021/06/17 22:28:04;;;;;;;;;;;;;;;26.84;42.85;101049.53;15723351;28;19927;-61
2021/06/17 22:35:38;;;;;;;;;;;;;;;26.71;43.61;101037.91;15720005;28;20361;-62
2021/06/17 22:43:10;;;;;;;;;;;;;;;26.39;44.24;101038.47;15740450;28;19929;-62
2021/06/17 22:50:43;;;;;;;;;;;;;;;26.37;44.63;101045.88;15721893;28;19921;-63
2021/06/17 22:58:15;;;;;;;;;;;;;;;26.16;44.75;101032.69;15721510;28;20297;-62
2021/06/17 23:05:48;;;;;;;;;;;;;;;26.20;44.76;101033.44;15724235;28;19924;-60
2021/06/17 23:13:20;;;;;;;;;;;;;;;26.12;45.35;101038.47;15727724;28;19975;-64
2021/06/17 23:20:54;;;;;;;;;;;;;;;25.71;45.91;101038.66;15709887;28;19920;-63
2021/06/17 23:28:26;;;;;;;;;;;;;;;26.11;45.69;101033.97;15744817;28;20011;-62
2021/06/17 23:35:59;;;;;;;;;;;;;;;25.37;47.50;101032.16;15676819;28;19921;-64
2021/06/17 23:43:31;;;;;;;;;;;;;;;24.98;48.12;101033.38;15748108;28;19935;-63
2021/06/17 23:51:04;;;;;;;;;;;;;;;25.37;47.86;101026.44;15749214;28;19920;-62
2021/06/17 23:58:36;;;;;;;;;;;;;;;25.24;48.32;101018.44;15730702;28;20003;-61
